Aviation Digital Data Service (ADDS)

Output produced by TAFs form (0454 UTC 30 March 2017)
found at http://www.aviationweather.gov/adds/tafs/
 
METAR text: RJNY 300238Z 24013KT 210V270 9999 FEW025 BKN230 18/07 Q1017 RMK 1CU025 A3004
Conditions at: RJNY (SHIZUHAMA (JASDF, JP) observed 0238 UTC 30 March 2017
Temperature: 18.0°C (64°F)
Dewpoint: 7.0°C (45°F) [RH = 49%]
Pressure (altimeter): 30.03 inches Hg (1017.0 mb)
Winds: from the WSW (240 degrees) at 15 MPH (13 knots; 6.8 m/s)
Visibility: 6 or more miles (10+ km)
Ceiling: 23000 feet AGL
Clouds: few clouds at 2500 feet AGL
broken clouds at 23000 feet AGL
Weather: no significant weather observed at this time